ERS weather

Eros Airport
Windhoek, Khomas Region, Namibia

Public forecast

Using degrees Celsius for public forecast. Weather courtesy of forecast.io.

METAR (pilot weather report)

Retrieved 2019/04/19 08:00 UTC (36 minutes ago):

FYWE 190800Z 01006KT 9999 FEW040 24/08 Q1027

TAF (pilot weather forecast)

Forecast is more than 12 hours old.

Retrieved 2016/09/20 06:39 UTC (3 years ago):

TAF TAF GUCY 200500Z 2006/2112 23008KT 9999 BKN013 SCT115 PROB30 TEMPMETAR FYWE 200500Z 14004KT CAVOK 10/M17 Q1027